Time;durP1;ratioP1;P1;durP2;ratioP2;P2;SDS_P1;SDS_P2;PMS_P1;PMS_P2;Temp;Humidity;BMP_temperature;BMP_pressure;BME280_temperature;BME280_humidity;BME280_pressure;Samples;Min_cycle;Max_cycle;Signal;HPM_P1;HPM_P2
2023/04/28 00:02:13;;;;;;;22.08;11.35;;;;;;;;;;4989378;28;20055;-85
2023/04/28 00:04:40;;;;;;;21.42;11.02;;;;;;;;;;4992495;28;20054;-82
2023/04/28 00:07:07;;;;;;;19.00;10.52;;;;;;;;;;4993860;28;20043;-84
2023/04/28 00:09:40;;;;;;;18.48;10.30;;;;;;;;;;4980571;28;20039;-83
2023/04/28 00:12:06;;;;;;;18.98;10.77;;;;;;;;;;4990469;28;20053;-82
2023/04/28 00:14:33;;;;;;;19.23;10.00;;;;;;;;;;4990934;28;20054;-81
2023/04/28 00:17:02;;;;;;;21.13;11.48;;;;;;;;;;4975715;28;20499;-83
2023/04/28 00:19:33;;;;;;;20.95;10.68;;;;;;;;;;4991507;28;20115;-83
2023/04/28 00:22:01;;;;;;;18.65;10.50;;;;;;;;;;4995953;28;20050;-83
2023/04/28 00:24:27;;;;;;;24.38;10.90;;;;;;;;;;4995538;28;20074;-81
2023/04/28 00:26:55;;;;;;;24.20;10.60;;;;;;;;;;4979579;28;20510;-84
2023/04/28 00:29:21;;;;;;;26.08;11.02;;;;;;;;;;4992814;28;20069;-82
2023/04/28 00:31:48;;;;;;;25.48;11.05;;;;;;;;;;4993380;28;20073;-84
2023/04/28 00:34:15;;;;;;;21.02;11.25;;;;;;;;;;4976053;28;20058;-82
2023/04/28 00:36:42;;;;;;;22.25;11.35;;;;;;;;;;4991287;28;20057;-81
2023/04/28 00:39:08;;;;;;;27.75;11.38;;;;;;;;;;4989755;28;20502;-81
2023/04/28 00:41:35;;;;;;;19.00;10.63;;;;;;;;;;4990742;28;20539;-81
2023/04/28 00:44:02;;;;;;;17.83;10.38;;;;;;;;;;4990197;28;20125;-84
2023/04/28 00:46:30;;;;;;;20.13;11.02;;;;;;;;;;4982515;28;20135;-82
2023/04/28 00:49:00;;;;;;;20.40;11.10;;;;;;;;;;4994993;28;20050;-84
2023/04/28 00:51:27;;;;;;;19.70;10.75;;;;;;;;;;4987450;28;20126;-85
2023/04/28 00:53:55;;;;;;;22.27;11.15;;;;;;;;;;4987749;28;20046;-84
2023/04/28 00:56:22;;;;;;;19.33;10.18;;;;;;;;;;4989481;28;20410;-83
2023/04/28 00:58:49;;;;;;;21.80;11.23;;;;;;;;;;4974826;28;20047;-83
2023/04/28 01:01:15;;;;;;;20.13;10.90;;;;;;;;;;5006275;28;20125;-84
2023/04/28 01:03:42;;;;;;;20.38;9.80;;;;;;;;;;4989438;28;20051;-84
2023/04/28 01:06:10;;;;;;;19.70;10.20;;;;;;;;;;5006611;28;20039;-83
2023/04/28 01:08:38;;;;;;;19.70;11.00;;;;;;;;;;5006423;28;20130;-83
2023/04/28 01:11:13;;;;;;;24.85;10.82;;;;;;;;;;5006879;28;20043;-84
2023/04/28 01:14:06;;;;;;;23.02;10.10;;;;;;;;;;4987376;28;20043;-84
2023/04/28 01:16:37;;;;;;;21.13;10.05;;;;;;;;;;4992448;28;20043;-83
2023/04/28 01:19:06;;;;;;;17.83;10.15;;;;;;;;;;4993065;28;20133;-82
2023/04/28 01:21:38;;;;;;;17.98;9.85;;;;;;;;;;4994627;28;20069;-84
2023/04/28 01:24:27;;;;;;;18.40;9.60;;;;;;;;;;5000760;28;20121;-82
2023/04/28 01:26:58;;;;;;;17.75;9.88;;;;;;;;;;5004665;28;20053;-83
2023/04/28 01:29:26;;;;;;;17.30;10.00;;;;;;;;;;5005177;28;20735;-82
2023/04/28 01:31:56;;;;;;;24.42;10.20;;;;;;;;;;5005734;28;20066;-83
2023/04/28 01:34:23;;;;;;;21.52;10.35;;;;;;;;;;4991552;28;20053;-83
2023/04/28 01:36:49;;;;;;;19.10;10.35;;;;;;;;;;5000701;28;20058;-84
2023/04/28 01:39:16;;;;;;;17.60;10.25;;;;;;;;;;4976379;28;20058;-84
2023/04/28 01:41:43;;;;;;;19.73;10.25;;;;;;;;;;4989160;28;20055;-83
2023/04/28 01:44:11;;;;;;;18.50;10.18;;;;;;;;;;4973814;28;20470;-84
2023/04/28 01:46:38;;;;;;;22.85;10.30;;;;;;;;;;4989246;28;20043;-84
2023/04/28 01:49:05;;;;;;;22.67;10.45;;;;;;;;;;4986558;28;20462;-83
2023/04/28 01:51:32;;;;;;;22.63;10.35;;;;;;;;;;4986418;28;20089;-81
2023/04/28 01:54:00;;;;;;;19.23;10.15;;;;;;;;;;4989541;28;20059;-81
2023/04/28 01:56:28;;;;;;;17.45;9.75;;;;;;;;;;4976743;28;20042;-81
2023/04/28 01:58:56;;;;;;;19.77;10.10;;;;;;;;;;4989193;28;20126;-84
2023/04/28 02:01:22;;;;;;;16.52;9.55;;;;;;;;;;4989518;28;20111;-85
2023/04/28 02:03:49;;;;;;;20.40;9.90;;;;;;;;;;4988614;28;20069;-84
2023/04/28 02:06:16;;;;;;;20.35;10.25;;;;;;;;;;5003384;28;20042;-82
2023/04/28 02:08:43;;;;;;;22.42;10.55;;;;;;;;;;4985978;28;20101;-84
2023/04/28 02:11:32;;;;;;;19.85;9.63;;;;;;;;;;4987481;28;20051;-84
2023/04/28 02:13:58;;;;;;;19.33;10.07;;;;;;;;;;4987792;28;20133;-84
2023/04/28 02:16:25;;;;;;;21.52;9.88;;;;;;;;;;4988291;28;20149;-84
2023/04/28 02:18:52;;;;;;;23.65;10.30;;;;;;;;;;5005202;28;20129;-81
2023/04/28 02:21:19;;;;;;;24.70;10.85;;;;;;;;;;4994212;28;20145;-84
2023/04/28 02:23:46;;;;;;;22.30;11.07;;;;;;;;;;4996127;28;20026;-83
2023/04/28 02:26:12;;;;;;;18.25;10.40;;;;;;;;;;4998132;28;20061;-82
2023/04/28 02:28:40;;;;;;;17.83;10.32;;;;;;;;;;4977838;28;20035;-86
2023/04/28 02:31:08;;;;;;;21.60;10.90;;;;;;;;;;4991163;28;20101;-82
2023/04/28 02:33:35;;;;;;;19.85;10.82;;;;;;;;;;4990734;28;20069;-84
2023/04/28 02:36:02;;;;;;;20.92;10.35;;;;;;;;;;4990296;28;20047;-85
2023/04/28 02:38:29;;;;;;;19.92;11.13;;;;;;;;;;4991484;28;20070;-84
2023/04/28 02:40:57;;;;;;;25.10;11.80;;;;;;;;;;4991852;28;20047;-84
2023/04/28 02:43:24;;;;;;;22.35;11.95;;;;;;;;;;4995747;28;20046;-86
2023/04/28 02:45:52;;;;;;;22.52;11.15;;;;;;;;;;4991284;28;20066;-81
2023/04/28 02:48:18;;;;;;;23.55;11.73;;;;;;;;;;4990257;28;20490;-83
2023/04/28 02:50:45;;;;;;;86.18;33.03;;;;;;;;;;4990283;28;20042;-84
2023/04/28 02:53:12;;;;;;;86.05;32.83;;;;;;;;;;4992133;28;20077;-82
2023/04/28 02:55:38;;;;;;;49.03;19.98;;;;;;;;;;4992349;28;20058;-82
2023/04/28 02:58:05;;;;;;;34.30;17.05;;;;;;;;;;4990725;28;20514;-81
2023/04/28 03:00:32;;;;;;;38.38;17.60;;;;;;;;;;4977052;28;20042;-82
2023/04/28 03:02:59;;;;;;;46.78;18.38;;;;;;;;;;4991744;28;20049;-84
2023/04/28 03:05:26;;;;;;;43.72;18.77;;;;;;;;;;5008571;28;20043;-80
2023/04/28 03:07:53;;;;;;;31.00;14.20;;;;;;;;;;4977570;28;20477;-84
2023/04/28 03:10:20;;;;;;;27.95;13.60;;;;;;;;;;4991623;28;20055;-83
2023/04/28 03:12:46;;;;;;;24.63;12.40;;;;;;;;;;4987810;28;20119;-84
2023/04/28 03:15:13;;;;;;;24.65;12.40;;;;;;;;;;4997358;28;20131;-84
2023/04/28 03:17:41;;;;;;;25.77;12.13;;;;;;;;;;4993471;28;20102;-84
2023/04/28 03:20:08;;;;;;;32.85;14.90;;;;;;;;;;5012923;28;20055;-85
2023/04/28 03:22:34;;;;;;;34.40;15.25;;;;;;;;;;5009998;28;20055;-85
2023/04/28 03:25:02;;;;;;;24.58;12.93;;;;;;;;;;4992483;28;20046;-85
2023/04/28 03:27:32;;;;;;;25.83;12.18;;;;;;;;;;5008121;28;20051;-84
2023/04/28 03:30:00;;;;;;;19.08;11.35;;;;;;;;;;5008415;28;20066;-85
2023/04/28 03:32:27;;;;;;;21.60;10.55;;;;;;;;;;4992192;28;20042;-84
2023/04/28 03:34:54;;;;;;;23.50;11.45;;;;;;;;;;4975554;28;20043;-84
2023/04/28 03:37:20;;;;;;;19.27;9.88;;;;;;;;;;4997056;28;20054;-84
2023/04/28 03:39:47;;;;;;;19.42;10.73;;;;;;;;;;5023245;28;20465;-84
2023/04/28 03:42:14;;;;;;;19.42;10.20;;;;;;;;;;4997033;28;20066;-83
2023/04/28 03:45:16;;;;;;;20.40;9.75;;;;;;;;;;4983046;28;20474;-83
2023/04/28 03:47:43;;;;;;;24.05;10.48;;;;;;;;;;4972647;28;20499;-84
2023/04/28 03:50:09;;;;;;;21.88;10.15;;;;;;;;;;4989191;28;20038;-83
2023/04/28 03:52:36;;;;;;;26.65;11.02;;;;;;;;;;4990525;28;20132;-82
2023/04/28 03:55:03;;;;;;;26.98;10.90;;;;;;;;;;4992043;28;20466;-83
2023/04/28 03:57:29;;;;;;;26.02;12.55;;;;;;;;;;4992244;28;20414;-82
2023/04/28 03:59:56;;;;;;;23.95;12.43;;;;;;;;;;4991558;28;20038;-83
2023/04/28 04:02:22;;;;;;;30.00;11.18;;;;;;;;;;5022135;28;20192;-83
2023/04/28 04:04:49;;;;;;;23.55;10.93;;;;;;;;;;5021818;28;20065;-82
2023/04/28 04:07:17;;;;;;;23.38;10.68;;;;;;;;;;5011787;28;20050;-82
2023/04/28 04:09:43;;;;;;;25.30;10.98;;;;;;;;;;5007497;28;20066;-80
2023/04/28 04:12:10;;;;;;;20.70;10.63;;;;;;;;;;5007265;28;20042;-81
2023/04/28 04:14:36;;;;;;;23.17;10.68;;;;;;;;;;5007271;28;20088;-83
2023/04/28 04:17:03;;;;;;;17.77;9.32;;;;;;;;;;5009940;28;20645;-82
2023/04/28 04:19:30;;;;;;;19.00;9.70;;;;;;;;;;5035406;28;20043;-81
2023/04/28 04:21:56;;;;;;;24.65;9.88;;;;;;;;;;5016750;28;20045;-83
2023/04/28 04:24:23;;;;;;;21.13;9.40;;;;;;;;;;5016606;28;20042;-79
2023/04/28 04:26:50;;;;;;;21.42;9.00;;;;;;;;;;5029310;28;20470;-81
2023/04/28 04:29:27;;;;;;;22.10;9.20;;;;;;;;;;5022149;28;20046;-80
2023/04/28 04:31:54;;;;;;;21.52;8.95;;;;;;;;;;4995191;28;20505;-80
2023/04/28 04:34:21;;;;;;;20.13;9.13;;;;;;;;;;5013301;28;20047;-84
2023/04/28 04:36:47;;;;;;;16.30;8.43;;;;;;;;;;5013115;28;20043;-84
2023/04/28 04:39:14;;;;;;;20.58;8.60;;;;;;;;;;5016281;28;20042;-85
2023/04/28 04:41:41;;;;;;;18.50;8.70;;;;;;;;;;4981639;28;20054;-85
2023/04/28 04:44:30;;;;;;;20.65;8.75;;;;;;;;;;5011087;28;20053;-86
2023/04/28 04:46:59;;;;;;;20.80;8.88;;;;;;;;;;5016010;28;20113;-85
2023/04/28 04:49:26;;;;;;;18.45;8.93;;;;;;;;;;5016959;28;20653;-86
2023/04/28 04:51:55;;;;;;;19.83;9.07;;;;;;;;;;5012938;28;20051;-82
2023/04/28 04:54:21;;;;;;;19.08;8.85;;;;;;;;;;4993742;28;20062;-85
2023/04/28 04:56:48;;;;;;;19.45;9.35;;;;;;;;;;4991834;28;20141;-85
2023/04/28 04:59:29;;;;;;;20.67;9.27;;;;;;;;;;4997757;28;20057;-83
2023/04/28 05:02:04;;;;;;;20.98;8.27;;;;;;;;;;5001947;28;20058;-84
2023/04/28 05:04:37;;;;;;;15.77;8.48;;;;;;;;;;5025544;28;20062;-85
2023/04/28 05:07:08;;;;;;;19.90;8.82;;;;;;;;;;5004113;28;20069;-82
2023/04/28 05:09:38;;;;;;;20.42;8.10;;;;;;;;;;4997818;28;20061;-84
2023/04/28 05:12:05;;;;;;;23.27;8.55;;;;;;;;;;5000620;28;20047;-84
2023/04/28 05:14:32;;;;;;;25.05;7.95;;;;;;;;;;4995780;28;20086;-84
2023/04/28 05:16:59;;;;;;;17.13;7.57;;;;;;;;;;4995657;28;20078;-83
2023/04/28 05:19:35;;;;;;;24.17;8.10;;;;;;;;;;4989158;28;20046;-85
2023/04/28 05:22:02;;;;;;;16.65;7.78;;;;;;;;;;4987779;28;20047;-85
2023/04/28 05:24:31;;;;;;;16.42;7.63;;;;;;;;;;4981377;28;20121;-84
2023/04/28 05:27:01;;;;;;;16.40;7.68;;;;;;;;;;4969389;28;20050;-84
2023/04/28 05:29:28;;;;;;;20.00;7.43;;;;;;;;;;4983750;28;20046;-85
2023/04/28 05:31:55;;;;;;;19.40;7.93;;;;;;;;;;4952567;28;20047;-83
2023/04/28 05:34:23;;;;;;;20.13;7.85;;;;;;;;;;4968153;28;20043;-81
2023/04/28 05:36:51;;;;;;;18.65;7.55;;;;;;;;;;4993817;28;20049;-81
2023/04/28 05:39:21;;;;;;;18.08;7.53;;;;;;;;;;4995334;28;20107;-84
2023/04/28 05:41:49;;;;;;;19.63;7.70;;;;;;;;;;4975484;28;20049;-84
2023/04/28 05:44:16;;;;;;;22.08;7.60;;;;;;;;;;4993400;28;20096;-83
2023/04/28 05:46:44;;;;;;;19.95;6.95;;;;;;;;;;4976738;28;20042;-84
2023/04/28 05:49:11;;;;;;;16.20;6.38;;;;;;;;;;4987232;28;20102;-86
2023/04/28 05:51:38;;;;;;;21.23;6.80;;;;;;;;;;4996530;28;20046;-85
2023/04/28 05:54:05;;;;;;;20.80;7.18;;;;;;;;;;4995762;28;20054;-84
2023/04/28 05:56:38;;;;;;;14.07;6.32;;;;;;;;;;4975482;28;20050;-84
2023/04/28 05:59:08;;;;;;;21.15;6.20;;;;;;;;;;4955992;28;20055;-82
2023/04/28 06:01:53;;;;;;;;;;;;;;;;;;4990061;28;20050;-79
2023/04/28 06:04:19;;;;;;;15.95;6.00;;;;;;;;;;5012952;28;19953;-85
2023/04/28 06:06:48;;;;;;;15.82;6.45;;;;;;;;;;4996574;28;20039;-83
2023/04/28 06:09:15;;;;;;;17.70;6.50;;;;;;;;;;5011136;28;20050;-83
2023/04/28 06:11:50;;;;;;;22.63;8.48;;;;;;;;;;4975643;28;20047;-84
2023/04/28 06:14:46;;;;;;;19.27;7.00;;;;;;;;;;4946812;28;20050;-84
2023/04/28 06:17:30;;;;;;;25.58;8.10;;;;;;;;;;4974412;28;20065;-83
2023/04/28 06:20:00;;;;;;;15.27;6.43;;;;;;;;;;4985125;28;20070;-82
2023/04/28 06:22:35;;;;;;;26.48;9.73;;;;;;;;;;4985266;28;20110;-84
2023/04/28 06:25:15;;;;;;;52.65;17.65;;;;;;;;;;4951714;28;20442;-85
2023/04/28 06:27:53;;;;;;;42.90;15.93;;;;;;;;;;4977214;28;20057;-84
2023/04/28 06:30:32;;;;;;;42.28;16.77;;;;;;;;;;4939099;28;20497;-85
2023/04/28 06:33:09;;;;;;;28.88;10.48;;;;;;;;;;4992214;28;20082;-85
2023/04/28 06:35:52;;;;;;;50.63;19.10;;;;;;;;;;4983459;28;20105;-83
2023/04/28 06:38:47;;;;;;;27.60;9.88;;;;;;;;;;4962595;28;20046;-83
2023/04/28 06:41:22;;;;;;;19.35;8.05;;;;;;;;;;4971624;28;20067;-84
2023/04/28 06:43:51;;;;;;;21.15;7.70;;;;;;;;;;4977584;28;20038;-82
2023/04/28 06:46:28;;;;;;;12.88;6.05;;;;;;;;;;4973776;28;20057;-82
2023/04/28 06:48:58;;;;;;;14.13;5.75;;;;;;;;;;4960811;28;20073;-82
2023/04/28 06:51:25;;;;;;;15.20;6.10;;;;;;;;;;4950248;28;20050;-84
2023/04/28 06:53:56;;;;;;;15.40;5.38;;;;;;;;;;4992624;28;20071;-82
2023/04/28 06:56:26;;;;;;;12.35;5.50;;;;;;;;;;4955181;28;20040;-83
2023/04/28 06:59:04;;;;;;;14.65;5.35;;;;;;;;;;4926395;28;20066;-85
2023/04/28 07:01:45;;;;;;;16.27;5.85;;;;;;;;;;4964818;28;20531;-85
2023/04/28 07:04:21;;;;;;;18.00;5.90;;;;;;;;;;4959109;28;20598;-85
2023/04/28 07:07:20;;;;;;;15.85;5.50;;;;;;;;;;4957153;28;20059;-83
2023/04/28 07:10:01;;;;;;;16.25;5.38;;;;;;;;;;4943956;28;20043;-84
2023/04/28 07:12:33;;;;;;;14.17;5.77;;;;;;;;;;4960452;28;20759;-83
2023/04/28 07:15:12;;;;;;;14.65;6.65;;;;;;;;;;4981249;28;20050;-84
2023/04/28 07:25:52;;;;;;;57.08;19.58;;;;;;;;;;4881191;29;21364;-83
2023/04/28 07:28:49;;;;;;;90.60;28.90;;;;;;;;;;4855524;29;20053;-80
2023/04/28 07:43:09;;;;;;;16.27;6.95;;;;;;;;;;4838612;29;20549;-83
2023/04/28 07:50:22;;;;;;;20.60;4.60;;;;;;;;;;4879749;29;20054;-84
2023/04/28 08:02:08;;;;;;;14.75;4.25;;;;;;;;;;4898449;29;20099;-83
2023/04/28 08:05:10;;;;;;;;;;;;;;;;;;;;;
2023/04/28 08:13:35;;;;;;;;;;;;;;;;;;;;;
2023/04/28 08:20:50;;;;;;;7.45;3.30;;;;;;;;;;4804841;29;21004;-82
2023/04/28 08:27:11;;;;;;;8.13;2.95;;;;;;;;;;4927555;29;20098;-86
2023/04/28 08:30:09;;;;;;;7.88;3.15;;;;;;;;;;4926680;29;20055;-85
2023/04/28 08:33:06;;;;;;;6.72;3.00;;;;;;;;;;4901642;29;20055;-86
2023/04/28 08:35:36;;;;;;;7.68;3.22;;;;;;;;;;4905494;29;20555;-85
2023/04/28 08:41:35;;;;;;;12.02;2.65;;;;;;;;;;4900200;29;20043;-84
2023/04/28 08:44:25;;;;;;;9.80;2.90;;;;;;;;;;4915036;29;20520;-85
2023/04/28 08:47:18;;;;;;;7.78;3.03;;;;;;;;;;4895987;29;20036;-86
2023/04/28 08:50:27;;;;;;;7.22;2.90;;;;;;;;;;4905208;29;20064;-84
2023/04/28 08:53:09;;;;;;;5.88;2.80;;;;;;;;;;4923348;29;20118;-86
2023/04/28 08:56:44;;;;;;;8.75;3.10;;;;;;;;;;4916805;29;20162;-87
2023/04/28 09:00:08;;;;;;;7.25;2.58;;;;;;;;;;4859770;29;20536;-85
2023/04/28 09:06:10;;;;;;;;;;;;;;;;;;;;;
2023/04/28 09:09:39;;;;;;;7.20;2.58;;;;;;;;;;4874657;29;20066;-87
2023/04/28 09:12:56;;;;;;;;;;;;;;;;;;;;;
2023/04/28 09:16:09;;;;;;;6.40;2.60;;;;;;;;;;4858964;29;20097;-86
2023/04/28 09:18:58;;;;;;;7.22;2.70;;;;;;;;;;4841576;29;20048;-86
2023/04/28 09:21:59;;;;;;;7.95;2.80;;;;;;;;;;4865605;29;20048;-84
2023/04/28 09:25:41;;;;;;;8.85;2.58;;;;;;;;;;4849174;29;20057;-86
2023/04/28 09:44:54;;;;;;;;;;;;;;;;;;;;;
2023/04/28 09:51:25;;;;;;;8.05;3.45;;;;;;;;;;4922411;28;20043;-81
2023/04/28 09:54:42;;;;;;;10.98;3.50;;;;;;;;;;4898092;29;20040;-82
2023/04/28 10:00:39;;;;;;;6.90;3.70;;;;;;;;;;4923438;29;20185;-84
2023/04/28 10:03:10;;;;;;;12.77;3.65;;;;;;;;;;4911137;29;20138;-84
2023/04/28 10:05:38;;;;;;;9.15;3.40;;;;;;;;;;4935564;29;20050;-83
2023/04/28 10:08:08;;;;;;;7.35;3.63;;;;;;;;;;4913433;29;20080;-81
2023/04/28 10:10:36;;;;;;;7.53;3.78;;;;;;;;;;4889602;29;20040;-83
2023/04/28 10:13:03;;;;;;;9.23;3.90;;;;;;;;;;4889075;29;20047;-83
2023/04/28 10:15:39;;;;;;;12.80;4.03;;;;;;;;;;4935500;29;20055;-84
2023/04/28 10:18:07;;;;;;;12.63;4.53;;;;;;;;;;4925288;29;20047;-83
2023/04/28 10:20:37;;;;;;;7.28;4.20;;;;;;;;;;4929959;28;20063;-84
2023/04/28 10:23:18;;;;;;;8.45;3.88;;;;;;;;;;4965297;28;20040;-82
2023/04/28 10:25:56;;;;;;;8.35;3.45;;;;;;;;;;4983689;28;20057;-83
2023/04/28 10:28:33;;;;;;;13.45;4.72;;;;;;;;;;4963044;28;20043;-83
2023/04/28 10:31:40;;;;;;;10.50;4.10;;;;;;;;;;4950346;28;20061;-84
2023/04/28 10:35:13;;;;;;;11.02;4.68;;;;;;;;;;4896043;29;20130;-82
2023/04/28 10:39:00;;;;;;;;;;;;;;;;;;;;;
2023/04/28 10:44:42;;;;;;;11.40;4.13;;;;;;;;;;4974585;28;20044;-83
2023/04/28 10:47:09;;;;;;;9.10;4.35;;;;;;;;;;4961082;28;20098;-84
2023/04/28 10:49:57;;;;;;;9.45;4.82;;;;;;;;;;4960624;28;20051;-83
2023/04/28 10:52:30;;;;;;;9.23;4.60;;;;;;;;;;4952745;28;20054;-84
2023/04/28 10:55:18;;;;;;;8.05;5.07;;;;;;;;;;4962952;28;20074;-85
2023/04/28 10:58:08;;;;;;;9.75;4.72;;;;;;;;;;4956510;28;20044;-84
2023/04/28 11:00:34;;;;;;;10.85;5.13;;;;;;;;;;4964764;28;20051;-85
2023/04/28 11:03:01;;;;;;;10.00;4.82;;;;;;;;;;4966266;28;20051;-83
2023/04/28 11:05:29;;;;;;;11.15;5.38;;;;;;;;;;4964032;28;20051;-85
2023/04/28 11:08:14;;;;;;;12.25;5.78;;;;;;;;;;4964910;28;20051;-83
2023/04/28 11:11:00;;;;;;;13.23;5.88;;;;;;;;;;4965284;28;20123;-83
2023/04/28 11:13:33;;;;;;;9.40;5.07;;;;;;;;;;4966987;28;20050;-85
2023/04/28 11:16:03;;;;;;;11.85;5.40;;;;;;;;;;4966373;28;20287;-83
2023/04/28 11:18:50;;;;;;;14.48;5.13;;;;;;;;;;4981826;28;20486;-81
2023/04/28 11:21:24;;;;;;;13.60;5.50;;;;;;;;;;4951798;28;20047;-82
2023/04/28 11:23:51;;;;;;;12.27;5.38;;;;;;;;;;4945150;28;20051;-84
2023/04/28 11:26:19;;;;;;;8.18;4.93;;;;;;;;;;4959307;28;20050;-84
2023/04/28 11:28:47;;;;;;;13.15;4.90;;;;;;;;;;4962217;28;20059;-82
2023/04/28 11:31:18;;;;;;;12.98;4.88;;;;;;;;;;4948419;28;20051;-82
2023/04/28 11:33:48;;;;;;;10.48;4.70;;;;;;;;;;4943930;29;20099;-82
2023/04/28 11:36:36;;;;;;;9.18;4.85;;;;;;;;;;4945336;29;20051;-85
2023/04/28 11:39:07;;;;;;;13.52;4.60;;;;;;;;;;4935508;28;20103;-86
2023/04/28 11:41:39;;;;;;;8.02;4.88;;;;;;;;;;4959682;28;20055;-86
2023/04/28 11:44:16;;;;;;;9.75;5.03;;;;;;;;;;4935451;28;20059;-83
2023/04/28 11:46:49;;;;;;;10.90;4.75;;;;;;;;;;4919714;29;20055;-83
2023/04/28 11:49:20;;;;;;;10.52;5.03;;;;;;;;;;4905427;29;20063;-86
2023/04/28 11:51:51;;;;;;;7.63;4.22;;;;;;;;;;4936558;28;20043;-82
2023/04/28 11:54:22;;;;;;;8.75;4.18;;;;;;;;;;4938990;29;20071;-84
2023/04/28 11:56:49;;;;;;;9.38;3.95;;;;;;;;;;4960737;28;20515;-83
2023/04/28 11:59:25;;;;;;;7.78;4.05;;;;;;;;;;4926519;28;20048;-82
2023/04/28 12:02:01;;;;;;;5.78;3.70;;;;;;;;;;4927894;28;20047;-85
2023/04/28 12:04:31;;;;;;;;;;;;;;;;;;4917879;28;20095;-84
2023/04/28 12:07:13;;;;;;;7.03;3.65;;;;;;;;;;4943692;28;19919;-85
2023/04/28 12:10:02;;;;;;;6.60;3.60;;;;;;;;;;4941112;28;20043;-85
2023/04/28 12:12:47;;;;;;;8.10;3.75;;;;;;;;;;4920741;28;20457;-86
2023/04/28 12:15:23;;;;;;;6.47;3.60;;;;;;;;;;4925664;28;20054;-82
2023/04/28 12:18:07;;;;;;;6.47;3.80;;;;;;;;;;4930608;29;20062;-84
2023/04/28 12:20:38;;;;;;;7.22;3.92;;;;;;;;;;4914827;29;20050;-86
2023/04/28 12:23:08;;;;;;;11.25;4.57;;;;;;;;;;4909994;28;20051;-87
2023/04/28 12:26:12;;;;;;;6.57;3.78;;;;;;;;;;4905050;28;20538;-84
2023/04/28 12:28:54;;;;;;;11.07;4.30;;;;;;;;;;4908398;28;20066;-85
2023/04/28 12:31:54;;;;;;;10.10;3.88;;;;;;;;;;4928479;28;20044;-83
2023/04/28 12:34:54;;;;;;;;;;;;;;;;;;;;;
2023/04/28 12:37:43;;;;;;;6.55;3.47;;;;;;;;;;4941363;28;20098;-85
2023/04/28 12:40:21;;;;;;;6.75;3.72;;;;;;;;;;4906203;28;20185;-84
2023/04/28 12:43:02;;;;;;;8.15;3.90;;;;;;;;;;4939468;28;20052;-85
2023/04/28 12:45:55;;;;;;;10.77;4.82;;;;;;;;;;4948382;28;20990;-85
2023/04/28 12:48:26;;;;;;;8.38;4.85;;;;;;;;;;4944478;28;20058;-85
2023/04/28 12:51:20;;;;;;;9.02;4.43;;;;;;;;;;4928561;28;20051;-85
2023/04/28 12:53:51;;;;;;;8.60;4.38;;;;;;;;;;4905541;28;20048;-85
2023/04/28 12:56:23;;;;;;;9.60;5.25;;;;;;;;;;4934788;28;20569;-84
2023/04/28 12:59:02;;;;;;;7.32;4.38;;;;;;;;;;4947561;28;20047;-86
2023/04/28 13:01:58;;;;;;;7.43;4.55;;;;;;;;;;4946827;28;20705;-86
2023/04/28 13:04:44;;;;;;;8.80;4.70;;;;;;;;;;4919784;28;20075;-81
2023/04/28 13:07:15;;;;;;;8.23;4.85;;;;;;;;;;4928198;28;20047;-85
2023/04/28 13:09:51;;;;;;;7.97;4.65;;;;;;;;;;4934568;28;20079;-84
2023/04/28 13:12:26;;;;;;;11.18;4.88;;;;;;;;;;4922017;28;20107;-86
2023/04/28 13:15:05;;;;;;;11.07;4.20;;;;;;;;;;4942375;28;20047;-85
2023/04/28 13:17:37;;;;;;;8.55;4.50;;;;;;;;;;4941931;28;20073;-85
2023/04/28 13:20:20;;;;;;;12.80;4.57;;;;;;;;;;4942907;28;20056;-85
2023/04/28 13:22:55;;;;;;;6.72;4.13;;;;;;;;;;4940302;28;20404;-85
2023/04/28 13:25:27;;;;;;;9.15;4.63;;;;;;;;;;4937077;28;20060;-85
2023/04/28 13:27:59;;;;;;;11.93;5.00;;;;;;;;;;4929595;29;20500;-85
2023/04/28 13:30:38;;;;;;;9.73;5.43;;;;;;;;;;4953098;28;20070;-86
2023/04/28 13:33:15;;;;;;;10.73;5.05;;;;;;;;;;4929606;29;20119;-86
2023/04/28 13:35:42;;;;;;;10.18;5.35;;;;;;;;;;4941818;28;20051;-85
2023/04/28 13:38:11;;;;;;;14.77;6.20;;;;;;;;;;4954150;28;20054;-84
2023/04/28 13:41:02;;;;;;;11.52;6.45;;;;;;;;;;4944479;28;20043;-85
2023/04/28 13:43:32;;;;;;;10.07;5.45;;;;;;;;;;4950917;28;20081;-83
2023/04/28 13:46:12;;;;;;;12.43;6.70;;;;;;;;;;4940632;29;20051;-85
2023/04/28 13:48:39;;;;;;;11.68;6.20;;;;;;;;;;4959827;28;20043;-83
2023/04/28 13:51:09;;;;;;;11.52;6.30;;;;;;;;;;4967189;28;20051;-84
2023/04/28 13:53:39;;;;;;;13.23;6.45;;;;;;;;;;4943309;28;20047;-82
2023/04/28 13:59:50;;;;;;;14.07;7.07;;;;;;;;;;4954918;28;20789;-87
2023/04/28 14:02:53;;;;;;;13.10;6.50;;;;;;;;;;4880232;29;20044;-84
2023/04/28 14:05:26;;;;;;;11.90;6.35;;;;;;;;;;4914779;28;20518;-84
2023/04/28 14:08:02;;;;;;;10.93;5.95;;;;;;;;;;4964039;28;21669;-83
2023/04/28 14:10:38;;;;;;;12.85;6.10;;;;;;;;;;4953457;28;20058;-83
2023/04/28 14:13:05;;;;;;;13.13;6.32;;;;;;;;;;4948067;28;20047;-84
2023/04/28 14:15:33;;;;;;;12.32;6.47;;;;;;;;;;4946600;28;20116;-83
2023/04/28 14:18:04;;;;;;;10.02;5.78;;;;;;;;;;4955922;28;20062;-85
2023/04/28 14:20:33;;;;;;;9.90;5.50;;;;;;;;;;4966704;28;20078;-84
2023/04/28 14:23:04;;;;;;;12.60;5.93;;;;;;;;;;4953562;28;20047;-84
2023/04/28 14:25:33;;;;;;;14.15;5.78;;;;;;;;;;4939288;28;20043;-83
2023/04/28 14:28:04;;;;;;;12.52;5.80;;;;;;;;;;4965184;28;20052;-85
2023/04/28 14:30:34;;;;;;;10.05;5.70;;;;;;;;;;4931387;28;20105;-82
2023/04/28 14:33:05;;;;;;;11.57;5.35;;;;;;;;;;4945109;28;20051;-85
2023/04/28 14:35:35;;;;;;;9.77;5.45;;;;;;;;;;4916383;29;20051;-84
2023/04/28 14:38:12;;;;;;;11.00;5.35;;;;;;;;;;4964330;28;20055;-83
2023/04/28 14:40:42;;;;;;;16.48;5.50;;;;;;;;;;4921465;29;20043;-84
2023/04/28 14:43:14;;;;;;;12.03;5.97;;;;;;;;;;4953582;28;20067;-84
2023/04/28 14:45:45;;;;;;;11.75;5.45;;;;;;;;;;4961816;28;20161;-83
2023/04/28 14:48:13;;;;;;;10.57;5.45;;;;;;;;;;4953152;28;20058;-84
2023/04/28 14:50:43;;;;;;;10.95;5.30;;;;;;;;;;4934383;28;20693;-83
2023/04/28 14:53:13;;;;;;;9.98;5.53;;;;;;;;;;4931892;28;20066;-84
2023/04/28 14:55:40;;;;;;;11.63;5.43;;;;;;;;;;4947623;29;20074;-85
2023/04/28 14:58:07;;;;;;;12.07;5.60;;;;;;;;;;4940150;28;20058;-85
2023/04/28 15:00:36;;;;;;;10.52;5.93;;;;;;;;;;4964924;28;20057;-83
2023/04/28 15:03:03;;;;;;;15.45;5.70;;;;;;;;;;4956241;28;20068;-82
2023/04/28 15:05:30;;;;;;;14.10;5.72;;;;;;;;;;4944576;28;20076;-82
2023/04/28 15:07:57;;;;;;;14.55;5.25;;;;;;;;;;4947698;28;20055;-83
2023/04/28 15:10:25;;;;;;;15.30;5.95;;;;;;;;;;4960393;28;20047;-82
2023/04/28 15:12:51;;;;;;;8.88;4.95;;;;;;;;;;4953318;28;20144;-81
2023/04/28 15:15:18;;;;;;;10.20;5.72;;;;;;;;;;4945520;28;20075;-80
2023/04/28 15:17:44;;;;;;;10.68;6.32;;;;;;;;;;4945111;28;20079;-83
2023/04/28 15:20:11;;;;;;;10.45;6.22;;;;;;;;;;4946361;29;20118;-81
2023/04/28 15:22:38;;;;;;;9.05;5.30;;;;;;;;;;4947602;28;20047;-81
2023/04/28 15:25:05;;;;;;;12.60;5.43;;;;;;;;;;4948390;28;20059;-81
2023/04/28 15:27:32;;;;;;;10.85;5.95;;;;;;;;;;4948512;28;20043;-80
2023/04/28 15:29:58;;;;;;;12.02;5.88;;;;;;;;;;4977048;28;20050;-82
2023/04/28 15:32:25;;;;;;;9.02;5.10;;;;;;;;;;4967460;28;20111;-80
2023/04/28 15:34:59;;;;;;;10.23;5.65;;;;;;;;;;4967536;28;20142;-84
2023/04/28 15:37:46;;;;;;;12.27;5.50;;;;;;;;;;4966122;28;20043;-84
2023/04/28 15:40:14;;;;;;;8.60;4.45;;;;;;;;;;4957735;28;20045;-81
2023/04/28 15:42:43;;;;;;;8.35;5.45;;;;;;;;;;4966929;28;20039;-81
2023/04/28 15:45:10;;;;;;;9.60;4.82;;;;;;;;;;4968680;28;20058;-80
2023/04/28 15:47:37;;;;;;;8.38;4.65;;;;;;;;;;4967327;28;20329;-81
2023/04/28 15:50:05;;;;;;;7.57;4.40;;;;;;;;;;4966258;28;20083;-83
2023/04/28 15:52:32;;;;;;;10.93;5.55;;;;;;;;;;4966038;28;20105;-81
2023/04/28 15:54:59;;;;;;;10.02;5.35;;;;;;;;;;4966793;28;20059;-82
2023/04/28 15:57:26;;;;;;;7.72;4.55;;;;;;;;;;4959092;28;20066;-83
2023/04/28 15:59:53;;;;;;;9.32;4.68;;;;;;;;;;4953341;28;20079;-82
2023/04/28 16:02:19;;;;;;;6.82;4.25;;;;;;;;;;4948671;28;20067;-82
2023/04/28 16:04:47;;;;;;;9.05;4.20;;;;;;;;;;4933190;29;20039;-83
2023/04/28 16:07:20;;;;;;;6.78;4.38;;;;;;;;;;4931617;29;20740;-81
2023/04/28 16:09:46;;;;;;;7.05;4.22;;;;;;;;;;4970830;28;20048;-81
2023/04/28 16:12:13;;;;;;;9.57;4.45;;;;;;;;;;4963123;28;20045;-83
2023/04/28 16:14:40;;;;;;;9.25;4.07;;;;;;;;;;4955595;28;20047;-77
2023/04/28 16:17:06;;;;;;;7.78;4.28;;;;;;;;;;4964429;28;20051;-82
2023/04/28 16:19:33;;;;;;;7.85;4.18;;;;;;;;;;4966723;28;20051;-81
2023/04/28 16:22:00;;;;;;;9.23;4.03;;;;;;;;;;4965777;28;20047;-83
2023/04/28 16:24:27;;;;;;;9.07;4.13;;;;;;;;;;4965172;28;20066;-83
2023/04/28 16:26:57;;;;;;;7.68;4.07;;;;;;;;;;4967019;28;20063;-81
2023/04/28 16:29:30;;;;;;;7.53;3.88;;;;;;;;;;4958108;28;20062;-81
2023/04/28 16:31:57;;;;;;;10.88;4.15;;;;;;;;;;4964989;28;20075;-81
2023/04/28 16:34:50;;;;;;;13.43;6.95;;;;;;;;;;4975818;28;20047;-81
2023/04/28 16:37:32;;;;;;;8.18;5.32;;;;;;;;;;4945706;28;20384;-83
2023/04/28 16:40:02;;;;;;;8.13;4.28;;;;;;;;;;4974693;28;20055;-82
2023/04/28 16:42:36;;;;;;;7.45;3.50;;;;;;;;;;4965822;28;20696;-85